sensor_id;sensor_type;location;lat;lon;timestamp;P1;durP1;ratioP1;P2;durP2;ratioP2
48211;SDS011;34000;48.772;9.162;2023-12-20T00:00:58;1.02;;;0.60;;
48211;SDS011;34000;48.772;9.162;2023-12-20T00:03:24;0.60;;;0.60;;
48211;SDS011;34000;48.772;9.162;2023-12-20T00:05:50;0.68;;;0.68;;
48211;SDS011;34000;48.772;9.162;2023-12-20T00:08:16;1.05;;;0.82;;
48211;SDS011;34000;48.772;9.162;2023-12-20T00:10:45;0.65;;;0.65;;
48211;SDS011;34000;48.772;9.162;2023-12-20T00:13:11;0.65;;;0.65;;
48211;SDS011;34000;48.772;9.162;2023-12-20T00:15:37;1.13;;;0.70;;
48211;SDS011;34000;48.772;9.162;2023-12-20T00:18:03;2.10;;;1.00;;
48211;SDS011;34000;48.772;9.162;2023-12-20T00:20:30;1.02;;;0.70;;
48211;SDS011;34000;48.772;9.162;2023-12-20T00:22:56;1.17;;;0.60;;
48211;SDS011;34000;48.772;9.162;2023-12-20T00:25:25;0.85;;;0.80;;
48211;SDS011;34000;48.772;9.162;2023-12-20T00:27:51;0.75;;;0.65;;
48211;SDS011;34000;48.772;9.162;2023-12-20T00:30:17;0.40;;;0.30;;
48211;SDS011;34000;48.772;9.162;2023-12-20T00:32:44;0.55;;;0.55;;
48211;SDS011;34000;48.772;9.162;2023-12-20T00:35:12;0.65;;;0.65;;
48211;SDS011;34000;48.772;9.162;2023-12-20T00:37:38;0.55;;;0.50;;
48211;SDS011;34000;48.772;9.162;2023-12-20T00:40:04;1.02;;;0.93;;
48211;SDS011;34000;48.772;9.162;2023-12-20T00:42:31;0.40;;;0.40;;
48211;SDS011;34000;48.772;9.162;2023-12-20T00:44:58;0.47;;;0.47;;
48211;SDS011;34000;48.772;9.162;2023-12-20T00:47:24;0.50;;;0.50;;
48211;SDS011;34000;48.772;9.162;2023-12-20T00:49:50;0.90;;;0.70;;
48211;SDS011;34000;48.772;9.162;2023-12-20T00:52:16;0.82;;;0.70;;
48211;SDS011;34000;48.772;9.162;2023-12-20T00:54:42;1.40;;;1.00;;
48211;SDS011;34000;48.772;9.162;2023-12-20T00:57:08;0.50;;;0.50;;
48211;SDS011;34000;48.772;9.162;2023-12-20T00:59:34;0.75;;;0.60;;
48211;SDS011;34000;48.772;9.162;2023-12-20T01:02:00;1.00;;;1.00;;
48211;SDS011;34000;48.772;9.162;2023-12-20T01:04:26;0.60;;;0.60;;
48211;SDS011;34000;48.772;9.162;2023-12-20T01:06:52;0.73;;;0.73;;
48211;SDS011;34000;48.772;9.162;2023-12-20T01:09:18;0.60;;;0.60;;
48211;SDS011;34000;48.772;9.162;2023-12-20T01:11:45;0.55;;;0.55;;
48211;SDS011;34000;48.772;9.162;2023-12-20T01:14:11;0.60;;;0.60;;
48211;SDS011;34000;48.772;9.162;2023-12-20T01:16:37;0.52;;;0.52;;
48211;SDS011;34000;48.772;9.162;2023-12-20T01:19:03;0.50;;;0.50;;
48211;SDS011;34000;48.772;9.162;2023-12-20T01:21:29;0.90;;;0.68;;
48211;SDS011;34000;48.772;9.162;2023-12-20T01:23:55;2.20;;;0.70;;
48211;SDS011;34000;48.772;9.162;2023-12-20T01:26:21;0.55;;;0.55;;
48211;SDS011;34000;48.772;9.162;2023-12-20T01:28:47;0.57;;;0.50;;
48211;SDS011;34000;48.772;9.162;2023-12-20T01:31:13;1.48;;;0.68;;
48211;SDS011;34000;48.772;9.162;2023-12-20T01:33:39;0.70;;;0.57;;
48211;SDS011;34000;48.772;9.162;2023-12-20T01:36:05;2.08;;;0.68;;
48211;SDS011;34000;48.772;9.162;2023-12-20T01:38:31;0.60;;;0.60;;
48211;SDS011;34000;48.772;9.162;2023-12-20T01:40:58;0.95;;;0.43;;
48211;SDS011;34000;48.772;9.162;2023-12-20T01:43:24;0.57;;;0.52;;
48211;SDS011;34000;48.772;9.162;2023-12-20T01:45:50;0.60;;;0.60;;
48211;SDS011;34000;48.772;9.162;2023-12-20T01:48:17;2.03;;;0.70;;
48211;SDS011;34000;48.772;9.162;2023-12-20T01:50:43;0.82;;;0.70;;
48211;SDS011;34000;48.772;9.162;2023-12-20T01:53:11;1.10;;;0.80;;
48211;SDS011;34000;48.772;9.162;2023-12-20T01:55:38;1.25;;;0.57;;
48211;SDS011;34000;48.772;9.162;2023-12-20T01:58:05;0.63;;;0.60;;
48211;SDS011;34000;48.772;9.162;2023-12-20T02:00:31;0.50;;;0.50;;
48211;SDS011;34000;48.772;9.162;2023-12-20T02:03:00;1.20;;;0.77;;
48211;SDS011;34000;48.772;9.162;2023-12-20T02:05:27;0.73;;;0.70;;
48211;SDS011;34000;48.772;9.162;2023-12-20T02:07:53;1.05;;;0.60;;
48211;SDS011;34000;48.772;9.162;2023-12-20T02:10:19;1.35;;;0.90;;
48211;SDS011;34000;48.772;9.162;2023-12-20T02:12:46;0.57;;;0.55;;
48211;SDS011;34000;48.772;9.162;2023-12-20T02:15:12;0.90;;;0.50;;
48211;SDS011;34000;48.772;9.162;2023-12-20T02:17:38;0.90;;;0.52;;
48211;SDS011;34000;48.772;9.162;2023-12-20T02:20:04;1.15;;;0.75;;
48211;SDS011;34000;48.772;9.162;2023-12-20T02:22:30;1.05;;;0.70;;
48211;SDS011;34000;48.772;9.162;2023-12-20T02:24:56;1.70;;;0.88;;
48211;SDS011;34000;48.772;9.162;2023-12-20T02:27:22;1.13;;;0.65;;
48211;SDS011;34000;48.772;9.162;2023-12-20T02:29:48;0.60;;;0.60;;
48211;SDS011;34000;48.772;9.162;2023-12-20T02:32:15;0.80;;;0.70;;
48211;SDS011;34000;48.772;9.162;2023-12-20T02:34:41;0.68;;;0.55;;
48211;SDS011;34000;48.772;9.162;2023-12-20T02:37:07;0.93;;;0.70;;
48211;SDS011;34000;48.772;9.162;2023-12-20T02:39:33;0.70;;;0.70;;
48211;SDS011;34000;48.772;9.162;2023-12-20T02:41:59;1.02;;;0.75;;
48211;SDS011;34000;48.772;9.162;2023-12-20T02:44:25;1.00;;;0.70;;
48211;SDS011;34000;48.772;9.162;2023-12-20T02:46:51;2.22;;;0.85;;
48211;SDS011;34000;48.772;9.162;2023-12-20T02:49:17;0.52;;;0.52;;
48211;SDS011;34000;48.772;9.162;2023-12-20T02:51:43;1.48;;;0.80;;
48211;SDS011;34000;48.772;9.162;2023-12-20T02:54:09;0.60;;;0.60;;
48211;SDS011;34000;48.772;9.162;2023-12-20T02:56:35;1.88;;;0.90;;
48211;SDS011;34000;48.772;9.162;2023-12-20T02:59:01;0.70;;;0.70;;
48211;SDS011;34000;48.772;9.162;2023-12-20T03:01:30;0.60;;;0.60;;
48211;SDS011;34000;48.772;9.162;2023-12-20T03:03:56;0.63;;;0.57;;
48211;SDS011;34000;48.772;9.162;2023-12-20T03:06:22;0.65;;;0.65;;
48211;SDS011;34000;48.772;9.162;2023-12-20T03:08:48;0.85;;;0.50;;
48211;SDS011;34000;48.772;9.162;2023-12-20T03:11:14;2.30;;;0.73;;
48211;SDS011;34000;48.772;9.162;2023-12-20T03:13:40;2.72;;;0.70;;
48211;SDS011;34000;48.772;9.162;2023-12-20T03:16:09;0.63;;;0.63;;
48211;SDS011;34000;48.772;9.162;2023-12-20T03:18:35;0.57;;;0.57;;
48211;SDS011;34000;48.772;9.162;2023-12-20T03:21:01;0.75;;;0.75;;
48211;SDS011;34000;48.772;9.162;2023-12-20T03:23:27;0.77;;;0.77;;
48211;SDS011;34000;48.772;9.162;2023-12-20T03:25:55;0.60;;;0.57;;
48211;SDS011;34000;48.772;9.162;2023-12-20T03:28:21;0.28;;;0.28;;
48211;SDS011;34000;48.772;9.162;2023-12-20T03:30:48;0.40;;;0.35;;
48211;SDS011;34000;48.772;9.162;2023-12-20T03:33:14;0.40;;;0.40;;
48211;SDS011;34000;48.772;9.162;2023-12-20T03:35:40;1.15;;;0.50;;
48211;SDS011;34000;48.772;9.162;2023-12-20T03:38:06;0.40;;;0.40;;
48211;SDS011;34000;48.772;9.162;2023-12-20T03:40:32;0.28;;;0.28;;
48211;SDS011;34000;48.772;9.162;2023-12-20T03:42:58;0.30;;;0.30;;
48211;SDS011;34000;48.772;9.162;2023-12-20T03:45:24;0.73;;;0.38;;
48211;SDS011;34000;48.772;9.162;2023-12-20T03:47:50;0.40;;;0.40;;
48211;SDS011;34000;48.772;9.162;2023-12-20T03:50:20;0.20;;;0.20;;
48211;SDS011;34000;48.772;9.162;2023-12-20T03:52:46;0.20;;;0.20;;
48211;SDS011;34000;48.772;9.162;2023-12-20T03:55:12;0.30;;;0.30;;
48211;SDS011;34000;48.772;9.162;2023-12-20T03:57:38;0.20;;;0.20;;
48211;SDS011;34000;48.772;9.162;2023-12-20T04:00:04;0.30;;;0.30;;
48211;SDS011;34000;48.772;9.162;2023-12-20T04:02:34;0.25;;;0.20;;
48211;SDS011;34000;48.772;9.162;2023-12-20T04:05:00;0.20;;;0.20;;
48211;SDS011;34000;48.772;9.162;2023-12-20T04:07:26;0.65;;;0.30;;
48211;SDS011;34000;48.772;9.162;2023-12-20T04:09:52;0.20;;;0.20;;
48211;SDS011;34000;48.772;9.162;2023-12-20T04:12:18;0.30;;;0.30;;
48211;SDS011;34000;48.772;9.162;2023-12-20T04:14:44;0.20;;;0.20;;
48211;SDS011;34000;48.772;9.162;2023-12-20T04:17:10;0.15;;;0.15;;
48211;SDS011;34000;48.772;9.162;2023-12-20T04:19:36;0.20;;;0.20;;
48211;SDS011;34000;48.772;9.162;2023-12-20T04:22:02;0.30;;;0.30;;
48211;SDS011;34000;48.772;9.162;2023-12-20T04:24:28;0.30;;;0.30;;
48211;SDS011;34000;48.772;9.162;2023-12-20T04:26:54;0.40;;;0.40;;
48211;SDS011;34000;48.772;9.162;2023-12-20T04:29:20;0.20;;;0.20;;
48211;SDS011;34000;48.772;9.162;2023-12-20T04:31:46;0.28;;;0.28;;
48211;SDS011;34000;48.772;9.162;2023-12-20T04:34:12;0.20;;;0.20;;
48211;SDS011;34000;48.772;9.162;2023-12-20T04:36:38;0.20;;;0.20;;
48211;SDS011;34000;48.772;9.162;2023-12-20T04:39:04;0.20;;;0.20;;
48211;SDS011;34000;48.772;9.162;2023-12-20T04:41:30;0.20;;;0.20;;
48211;SDS011;34000;48.772;9.162;2023-12-20T04:43:56;0.20;;;0.20;;
48211;SDS011;34000;48.772;9.162;2023-12-20T04:46:22;0.45;;;0.20;;
48211;SDS011;34000;48.772;9.162;2023-12-20T04:48:48;0.20;;;0.20;;
48211;SDS011;34000;48.772;9.162;2023-12-20T04:51:14;0.35;;;0.20;;
48211;SDS011;34000;48.772;9.162;2023-12-20T04:53:40;1.38;;;0.20;;
48211;SDS011;34000;48.772;9.162;2023-12-20T04:56:06;0.28;;;0.28;;
48211;SDS011;34000;48.772;9.162;2023-12-20T04:58:32;0.55;;;0.30;;
48211;SDS011;34000;48.772;9.162;2023-12-20T05:00:58;0.30;;;0.30;;
48211;SDS011;34000;48.772;9.162;2023-12-20T05:03:24;0.25;;;0.25;;
48211;SDS011;34000;48.772;9.162;2023-12-20T05:05:49;0.20;;;0.20;;
48211;SDS011;34000;48.772;9.162;2023-12-20T05:08:16;0.20;;;0.20;;
48211;SDS011;34000;48.772;9.162;2023-12-20T05:10:41;0.20;;;0.20;;
48211;SDS011;34000;48.772;9.162;2023-12-20T05:13:07;0.20;;;0.20;;
48211;SDS011;34000;48.772;9.162;2023-12-20T05:15:33;0.60;;;0.30;;
48211;SDS011;34000;48.772;9.162;2023-12-20T05:17:59;0.20;;;0.20;;
48211;SDS011;34000;48.772;9.162;2023-12-20T05:20:25;0.20;;;0.20;;
48211;SDS011;34000;48.772;9.162;2023-12-20T05:22:51;0.20;;;0.20;;
48211;SDS011;34000;48.772;9.162;2023-12-20T05:25:17;0.17;;;0.17;;
48211;SDS011;34000;48.772;9.162;2023-12-20T05:27:43;0.30;;;0.30;;
48211;SDS011;34000;48.772;9.162;2023-12-20T05:30:10;0.20;;;0.20;;
48211;SDS011;34000;48.772;9.162;2023-12-20T05:32:36;0.25;;;0.25;;
48211;SDS011;34000;48.772;9.162;2023-12-20T05:35:02;0.65;;;0.28;;
48211;SDS011;34000;48.772;9.162;2023-12-20T05:37:28;0.30;;;0.30;;
48211;SDS011;34000;48.772;9.162;2023-12-20T05:39:54;0.20;;;0.20;;
48211;SDS011;34000;48.772;9.162;2023-12-20T05:42:20;0.22;;;0.22;;
48211;SDS011;34000;48.772;9.162;2023-12-20T05:44:46;0.30;;;0.30;;
48211;SDS011;34000;48.772;9.162;2023-12-20T05:47:12;0.20;;;0.20;;
48211;SDS011;34000;48.772;9.162;2023-12-20T05:49:38;2.83;;;0.30;;
48211;SDS011;34000;48.772;9.162;2023-12-20T05:52:04;1.58;;;0.38;;
48211;SDS011;34000;48.772;9.162;2023-12-20T05:54:30;0.30;;;0.30;;
48211;SDS011;34000;48.772;9.162;2023-12-20T05:56:56;0.22;;;0.22;;
48211;SDS011;34000;48.772;9.162;2023-12-20T05:59:22;0.20;;;0.20;;
48211;SDS011;34000;48.772;9.162;2023-12-20T06:01:49;0.30;;;0.30;;
48211;SDS011;34000;48.772;9.162;2023-12-20T06:04:14;0.22;;;0.22;;
48211;SDS011;34000;48.772;9.162;2023-12-20T06:06:41;0.22;;;0.22;;
48211;SDS011;34000;48.772;9.162;2023-12-20T06:09:07;3.05;;;0.32;;
48211;SDS011;34000;48.772;9.162;2023-12-20T06:11:33;0.20;;;0.20;;
48211;SDS011;34000;48.772;9.162;2023-12-20T06:13:59;0.43;;;0.40;;
48211;SDS011;34000;48.772;9.162;2023-12-20T06:16:25;0.30;;;0.30;;
48211;SDS011;34000;48.772;9.162;2023-12-20T06:18:51;0.35;;;0.30;;
48211;SDS011;34000;48.772;9.162;2023-12-20T06:21:17;0.35;;;0.35;;
48211;SDS011;34000;48.772;9.162;2023-12-20T06:23:43;0.28;;;0.28;;
48211;SDS011;34000;48.772;9.162;2023-12-20T06:26:10;0.28;;;0.28;;
48211;SDS011;34000;48.772;9.162;2023-12-20T06:28:36;0.20;;;0.20;;
48211;SDS011;34000;48.772;9.162;2023-12-20T06:31:02;2.05;;;0.30;;
48211;SDS011;34000;48.772;9.162;2023-12-20T06:33:28;0.45;;;0.30;;
48211;SDS011;34000;48.772;9.162;2023-12-20T06:35:56;0.65;;;0.30;;
48211;SDS011;34000;48.772;9.162;2023-12-20T06:38:22;0.93;;;0.47;;
48211;SDS011;34000;48.772;9.162;2023-12-20T06:40:48;0.45;;;0.45;;
48211;SDS011;34000;48.772;9.162;2023-12-20T06:43:14;0.77;;;0.45;;
48211;SDS011;34000;48.772;9.162;2023-12-20T06:45:40;1.33;;;0.70;;
48211;SDS011;34000;48.772;9.162;2023-12-20T06:48:06;0.30;;;0.30;;
48211;SDS011;34000;48.772;9.162;2023-12-20T06:50:32;0.40;;;0.40;;
48211;SDS011;34000;48.772;9.162;2023-12-20T06:52:58;0.50;;;0.50;;
48211;SDS011;34000;48.772;9.162;2023-12-20T06:55:24;0.93;;;0.43;;
48211;SDS011;34000;48.772;9.162;2023-12-20T06:57:50;0.50;;;0.50;;
48211;SDS011;34000;48.772;9.162;2023-12-20T07:00:16;0.38;;;0.30;;
48211;SDS011;34000;48.772;9.162;2023-12-20T07:02:44;0.50;;;0.43;;
48211;SDS011;34000;48.772;9.162;2023-12-20T07:05:12;0.47;;;0.40;;
48211;SDS011;34000;48.772;9.162;2023-12-20T07:07:38;0.60;;;0.45;;
48211;SDS011;34000;48.772;9.162;2023-12-20T07:10:04;1.42;;;0.32;;
48211;SDS011;34000;48.772;9.162;2023-12-20T07:12:31;1.55;;;0.60;;
48211;SDS011;34000;48.772;9.162;2023-12-20T07:14:57;0.30;;;0.30;;
48211;SDS011;34000;48.772;9.162;2023-12-20T07:17:23;0.60;;;0.40;;
48211;SDS011;34000;48.772;9.162;2023-12-20T07:19:49;0.77;;;0.40;;
48211;SDS011;34000;48.772;9.162;2023-12-20T07:22:15;1.25;;;0.50;;
48211;SDS011;34000;48.772;9.162;2023-12-20T07:24:41;1.33;;;0.40;;
48211;SDS011;34000;48.772;9.162;2023-12-20T07:27:07;1.63;;;0.60;;
48211;SDS011;34000;48.772;9.162;2023-12-20T07:29:33;0.90;;;0.65;;
48211;SDS011;34000;48.772;9.162;2023-12-20T07:31:59;2.67;;;0.52;;
48211;SDS011;34000;48.772;9.162;2023-12-20T07:34:25;1.27;;;0.75;;
48211;SDS011;34000;48.772;9.162;2023-12-20T07:36:51;0.63;;;0.50;;
48211;SDS011;34000;48.772;9.162;2023-12-20T07:39:17;1.30;;;0.80;;
48211;SDS011;34000;48.772;9.162;2023-12-20T07:41:43;1.15;;;0.98;;
48211;SDS011;34000;48.772;9.162;2023-12-20T07:44:09;1.30;;;1.05;;
48211;SDS011;34000;48.772;9.162;2023-12-20T07:46:35;0.85;;;0.85;;
48211;SDS011;34000;48.772;9.162;2023-12-20T07:49:01;1.38;;;1.08;;
48211;SDS011;34000;48.772;9.162;2023-12-20T07:51:27;1.45;;;1.05;;
48211;SDS011;34000;48.772;9.162;2023-12-20T07:53:53;1.38;;;1.10;;
48211;SDS011;34000;48.772;9.162;2023-12-20T07:56:19;2.42;;;1.00;;
48211;SDS011;34000;48.772;9.162;2023-12-20T07:58:46;1.27;;;1.17;;
48211;SDS011;34000;48.772;9.162;2023-12-20T08:01:13;1.83;;;1.23;;
48211;SDS011;34000;48.772;9.162;2023-12-20T08:03:39;1.27;;;1.15;;
48211;SDS011;34000;48.772;9.162;2023-12-20T08:06:05;1.35;;;1.20;;
48211;SDS011;34000;48.772;9.162;2023-12-20T08:08:31;1.85;;;1.25;;
48211;SDS011;34000;48.772;9.162;2023-12-20T08:10:57;2.72;;;1.30;;
48211;SDS011;34000;48.772;9.162;2023-12-20T08:13:25;1.13;;;1.02;;
48211;SDS011;34000;48.772;9.162;2023-12-20T08:15:51;1.63;;;1.38;;
48211;SDS011;34000;48.772;9.162;2023-12-20T08:18:17;1.33;;;1.23;;
48211;SDS011;34000;48.772;9.162;2023-12-20T08:20:43;6.50;;;2.15;;
48211;SDS011;34000;48.772;9.162;2023-12-20T08:23:09;10.98;;;4.90;;
48211;SDS011;34000;48.772;9.162;2023-12-20T08:25:35;1.30;;;1.05;;
48211;SDS011;34000;48.772;9.162;2023-12-20T08:28:04;2.00;;;1.27;;
48211;SDS011;34000;48.772;9.162;2023-12-20T08:30:30;1.65;;;1.20;;
48211;SDS011;34000;48.772;9.162;2023-12-20T08:32:59;1.20;;;1.10;;
48211;SDS011;34000;48.772;9.162;2023-12-20T08:35:25;1.17;;;1.08;;
48211;SDS011;34000;48.772;9.162;2023-12-20T08:37:51;3.65;;;1.38;;
48211;SDS011;34000;48.772;9.162;2023-12-20T08:40:17;3.05;;;1.42;;
48211;SDS011;34000;48.772;9.162;2023-12-20T08:42:43;1.38;;;1.20;;
48211;SDS011;34000;48.772;9.162;2023-12-20T08:45:09;3.35;;;1.25;;
48211;SDS011;34000;48.772;9.162;2023-12-20T08:47:35;1.98;;;1.38;;
48211;SDS011;34000;48.772;9.162;2023-12-20T08:50:02;3.80;;;1.65;;
48211;SDS011;34000;48.772;9.162;2023-12-20T08:52:28;2.38;;;1.35;;
48211;SDS011;34000;48.772;9.162;2023-12-20T08:54:54;1.90;;;1.30;;
48211;SDS011;34000;48.772;9.162;2023-12-20T08:57:20;2.45;;;1.27;;
48211;SDS011;34000;48.772;9.162;2023-12-20T08:59:48;2.20;;;1.20;;
48211;SDS011;34000;48.772;9.162;2023-12-20T09:02:14;1.27;;;1.10;;
48211;SDS011;34000;48.772;9.162;2023-12-20T09:04:40;1.70;;;1.27;;
48211;SDS011;34000;48.772;9.162;2023-12-20T09:07:06;1.65;;;1.30;;
48211;SDS011;34000;48.772;9.162;2023-12-20T09:09:32;2.40;;;1.58;;
48211;SDS011;34000;48.772;9.162;2023-12-20T09:11:59;2.05;;;1.35;;
48211;SDS011;34000;48.772;9.162;2023-12-20T09:14:25;1.77;;;1.30;;
48211;SDS011;34000;48.772;9.162;2023-12-20T09:16:51;3.08;;;1.40;;
48211;SDS011;34000;48.772;9.162;2023-12-20T09:19:17;2.97;;;1.63;;
48211;SDS011;34000;48.772;9.162;2023-12-20T09:21:43;1.75;;;1.25;;
48211;SDS011;34000;48.772;9.162;2023-12-20T09:24:09;2.78;;;1.50;;
48211;SDS011;34000;48.772;9.162;2023-12-20T09:26:35;2.50;;;1.70;;
48211;SDS011;34000;48.772;9.162;2023-12-20T09:29:01;1.50;;;1.35;;
48211;SDS011;34000;48.772;9.162;2023-12-20T09:31:27;1.25;;;1.15;;
48211;SDS011;34000;48.772;9.162;2023-12-20T09:33:52;1.20;;;1.10;;
48211;SDS011;34000;48.772;9.162;2023-12-20T09:36:18;1.13;;;1.00;;
48211;SDS011;34000;48.772;9.162;2023-12-20T09:38:44;1.55;;;1.13;;
48211;SDS011;34000;48.772;9.162;2023-12-20T09:41:09;1.88;;;1.08;;
48211;SDS011;34000;48.772;9.162;2023-12-20T09:43:35;1.40;;;0.80;;
48211;SDS011;34000;48.772;9.162;2023-12-20T09:46:03;4.20;;;0.85;;
48211;SDS011;34000;48.772;9.162;2023-12-20T09:48:32;2.75;;;0.77;;
48211;SDS011;34000;48.772;9.162;2023-12-20T09:50:58;2.10;;;0.90;;
48211;SDS011;34000;48.772;9.162;2023-12-20T09:53:24;2.80;;;0.93;;
48211;SDS011;34000;48.772;9.162;2023-12-20T09:55:54;2.95;;;1.33;;
48211;SDS011;34000;48.772;9.162;2023-12-20T09:58:27;4.18;;;2.00;;
48211;SDS011;34000;48.772;9.162;2023-12-20T10:00:52;1.48;;;0.70;;
48211;SDS011;34000;48.772;9.162;2023-12-20T10:03:19;3.42;;;0.70;;
48211;SDS011;34000;48.772;9.162;2023-12-20T10:05:54;1.67;;;0.90;;
48211;SDS011;34000;48.772;9.162;2023-12-20T10:08:22;2.20;;;0.77;;
48211;SDS011;34000;48.772;9.162;2023-12-20T10:10:49;2.83;;;0.90;;
48211;SDS011;34000;48.772;9.162;2023-12-20T10:13:15;1.50;;;0.70;;
48211;SDS011;34000;48.772;9.162;2023-12-20T10:15:41;2.38;;;0.50;;
48211;SDS011;34000;48.772;9.162;2023-12-20T10:18:06;2.15;;;0.70;;
48211;SDS011;34000;48.772;9.162;2023-12-20T10:20:33;2.03;;;0.80;;
48211;SDS011;34000;48.772;9.162;2023-12-20T10:22:59;1.63;;;0.60;;
48211;SDS011;34000;48.772;9.162;2023-12-20T10:25:25;1.58;;;0.70;;
48211;SDS011;34000;48.772;9.162;2023-12-20T10:28:08;2.22;;;1.00;;
48211;SDS011;34000;48.772;9.162;2023-12-20T10:30:38;2.63;;;0.82;;
48211;SDS011;34000;48.772;9.162;2023-12-20T10:33:07;1.92;;;1.08;;
48211;SDS011;34000;48.772;9.162;2023-12-20T10:35:35;2.13;;;1.20;;
48211;SDS011;34000;48.772;9.162;2023-12-20T10:38:05;5.00;;;1.25;;
48211;SDS011;34000;48.772;9.162;2023-12-20T10:40:34;2.20;;;0.82;;
48211;SDS011;34000;48.772;9.162;2023-12-20T10:45:30;1.63;;;0.90;;
48211;SDS011;34000;48.772;9.162;2023-12-20T10:47:55;1.38;;;0.90;;
48211;SDS011;34000;48.772;9.162;2023-12-20T10:50:24;1.48;;;0.77;;
48211;SDS011;34000;48.772;9.162;2023-12-20T10:52:51;3.80;;;0.95;;
48211;SDS011;34000;48.772;9.162;2023-12-20T10:55:20;1.38;;;0.60;;
48211;SDS011;34000;48.772;9.162;2023-12-20T10:57:47;2.55;;;0.82;;
48211;SDS011;34000;48.772;9.162;2023-12-20T11:00:17;1.65;;;0.90;;
48211;SDS011;34000;48.772;9.162;2023-12-20T11:02:44;4.13;;;0.80;;
48211;SDS011;34000;48.772;9.162;2023-12-20T11:08:03;2.30;;;0.90;;
48211;SDS011;34000;48.772;9.162;2023-12-20T11:13:26;2.33;;;0.90;;
48211;SDS011;34000;48.772;9.162;2023-12-20T11:15:57;2.97;;;1.10;;
48211;SDS011;34000;48.772;9.162;2023-12-20T11:18:30;1.27;;;0.70;;
48211;SDS011;34000;48.772;9.162;2023-12-20T11:20:59;4.13;;;1.67;;
48211;SDS011;34000;48.772;9.162;2023-12-20T11:23:31;5.35;;;2.65;;
48211;SDS011;34000;48.772;9.162;2023-12-20T11:26:00;6.00;;;1.70;;
48211;SDS011;34000;48.772;9.162;2023-12-20T11:28:27;1.58;;;0.70;;
48211;SDS011;34000;48.772;9.162;2023-12-20T11:30:55;3.20;;;0.98;;
48211;SDS011;34000;48.772;9.162;2023-12-20T11:33:25;2.00;;;0.77;;
48211;SDS011;34000;48.772;9.162;2023-12-20T11:35:55;0.90;;;0.73;;
48211;SDS011;34000;48.772;9.162;2023-12-20T11:38:22;1.90;;;0.90;;
48211;SDS011;34000;48.772;9.162;2023-12-20T11:40:49;2.72;;;1.00;;
48211;SDS011;34000;48.772;9.162;2023-12-20T11:46:02;0.85;;;0.70;;
48211;SDS011;34000;48.772;9.162;2023-12-20T11:48:29;2.97;;;0.93;;
48211;SDS011;34000;48.772;9.162;2023-12-20T11:50:56;5.32;;;0.90;;
48211;SDS011;34000;48.772;9.162;2023-12-20T11:53:22;1.02;;;0.68;;
48211;SDS011;34000;48.772;9.162;2023-12-20T11:55:49;4.07;;;0.82;;
48211;SDS011;34000;48.772;9.162;2023-12-20T11:58:15;1.60;;;0.73;;
48211;SDS011;34000;48.772;9.162;2023-12-20T12:00:41;2.88;;;1.08;;
48211;SDS011;34000;48.772;9.162;2023-12-20T12:03:08;0.80;;;0.77;;
48211;SDS011;34000;48.772;9.162;2023-12-20T12:05:34;3.65;;;0.90;;
48211;SDS011;34000;48.772;9.162;2023-12-20T12:08:01;2.03;;;0.90;;
48211;SDS011;34000;48.772;9.162;2023-12-20T12:10:28;7.40;;;0.90;;
48211;SDS011;34000;48.772;9.162;2023-12-20T12:12:54;6.88;;;1.00;;
48211;SDS011;34000;48.772;9.162;2023-12-20T12:15:21;2.45;;;0.98;;
48211;SDS011;34000;48.772;9.162;2023-12-20T12:17:56;1.20;;;1.10;;
48211;SDS011;34000;48.772;9.162;2023-12-20T12:20:22;4.18;;;0.98;;
48211;SDS011;34000;48.772;9.162;2023-12-20T12:23:01;2.90;;;1.00;;
48211;SDS011;34000;48.772;9.162;2023-12-20T12:25:31;2.35;;;0.85;;
48211;SDS011;34000;48.772;9.162;2023-12-20T12:27:57;1.77;;;0.90;;
48211;SDS011;34000;48.772;9.162;2023-12-20T12:30:24;1.17;;;0.80;;
48211;SDS011;34000;48.772;9.162;2023-12-20T12:32:50;4.13;;;1.20;;
48211;SDS011;34000;48.772;9.162;2023-12-20T12:35:17;0.98;;;0.68;;
48211;SDS011;34000;48.772;9.162;2023-12-20T12:37:43;3.38;;;1.10;;
48211;SDS011;34000;48.772;9.162;2023-12-20T12:40:09;5.80;;;0.95;;
48211;SDS011;34000;48.772;9.162;2023-12-20T12:42:39;8.90;;;4.07;;
48211;SDS011;34000;48.772;9.162;2023-12-20T12:45:06;6.10;;;1.75;;
48211;SDS011;34000;48.772;9.162;2023-12-20T12:47:32;3.28;;;1.20;;
48211;SDS011;34000;48.772;9.162;2023-12-20T12:49:58;1.00;;;0.70;;
48211;SDS011;34000;48.772;9.162;2023-12-20T12:52:24;2.25;;;1.00;;
48211;SDS011;34000;48.772;9.162;2023-12-20T12:54:53;2.70;;;0.80;;
48211;SDS011;34000;48.772;9.162;2023-12-20T12:57:19;3.55;;;1.05;;
48211;SDS011;34000;48.772;9.162;2023-12-20T12:59:45;11.02;;;0.95;;
48211;SDS011;34000;48.772;9.162;2023-12-20T13:02:14;8.30;;;1.10;;
48211;SDS011;34000;48.772;9.162;2023-12-20T13:04:41;2.85;;;1.20;;
48211;SDS011;34000;48.772;9.162;2023-12-20T13:07:07;2.13;;;0.90;;
48211;SDS011;34000;48.772;9.162;2023-12-20T13:09:35;2.88;;;0.70;;
48211;SDS011;34000;48.772;9.162;2023-12-20T13:12:01;3.78;;;0.90;;
48211;SDS011;34000;48.772;9.162;2023-12-20T13:14:34;4.03;;;0.73;;
48211;SDS011;34000;48.772;9.162;2023-12-20T13:17:04;1.42;;;0.90;;
48211;SDS011;34000;48.772;9.162;2023-12-20T13:19:30;1.05;;;0.70;;
48211;SDS011;34000;48.772;9.162;2023-12-20T13:21:56;2.42;;;1.35;;
48211;SDS011;34000;48.772;9.162;2023-12-20T13:24:25;1.98;;;0.90;;
48211;SDS011;34000;48.772;9.162;2023-12-20T13:26:51;3.03;;;0.70;;
48211;SDS011;34000;48.772;9.162;2023-12-20T13:29:17;1.90;;;0.73;;
48211;SDS011;34000;48.772;9.162;2023-12-20T13:31:43;1.45;;;0.77;;
48211;SDS011;34000;48.772;9.162;2023-12-20T13:34:09;1.67;;;0.75;;
48211;SDS011;34000;48.772;9.162;2023-12-20T13:36:36;2.83;;;0.70;;
48211;SDS011;34000;48.772;9.162;2023-12-20T13:39:03;3.30;;;0.40;;
48211;SDS011;34000;48.772;9.162;2023-12-20T13:41:30;1.13;;;0.70;;
48211;SDS011;34000;48.772;9.162;2023-12-20T13:43:56;2.92;;;0.80;;
48211;SDS011;34000;48.772;9.162;2023-12-20T13:46:22;3.75;;;1.10;;
48211;SDS011;34000;48.772;9.162;2023-12-20T13:48:49;7.50;;;2.45;;
48211;SDS011;34000;48.772;9.162;2023-12-20T13:51:14;3.95;;;0.77;;
48211;SDS011;34000;48.772;9.162;2023-12-20T13:53:40;1.45;;;0.80;;
48211;SDS011;34000;48.772;9.162;2023-12-20T13:56:06;1.17;;;0.70;;
48211;SDS011;34000;48.772;9.162;2023-12-20T13:58:33;2.10;;;0.82;;
48211;SDS011;34000;48.772;9.162;2023-12-20T14:00:59;0.68;;;0.60;;
48211;SDS011;34000;48.772;9.162;2023-12-20T14:03:25;2.60;;;0.82;;
48211;SDS011;34000;48.772;9.162;2023-12-20T14:05:51;1.23;;;0.75;;
48211;SDS011;34000;48.772;9.162;2023-12-20T14:08:16;2.50;;;0.70;;
48211;SDS011;34000;48.772;9.162;2023-12-20T14:10:42;1.23;;;0.70;;
48211;SDS011;34000;48.772;9.162;2023-12-20T14:13:08;0.77;;;0.70;;
48211;SDS011;34000;48.772;9.162;2023-12-20T14:15:34;4.35;;;0.93;;
48211;SDS011;34000;48.772;9.162;2023-12-20T14:18:05;1.00;;;0.88;;
48211;SDS011;34000;48.772;9.162;2023-12-20T14:20:32;3.33;;;0.70;;
48211;SDS011;34000;48.772;9.162;2023-12-20T14:23:00;1.88;;;0.63;;
48211;SDS011;34000;48.772;9.162;2023-12-20T14:25:26;1.77;;;0.73;;
48211;SDS011;34000;48.772;9.162;2023-12-20T14:27:52;6.60;;;1.13;;
48211;SDS011;34000;48.772;9.162;2023-12-20T14:30:17;1.73;;;0.75;;
48211;SDS011;34000;48.772;9.162;2023-12-20T14:32:43;1.70;;;0.80;;
48211;SDS011;34000;48.772;9.162;2023-12-20T14:35:10;3.22;;;0.98;;
48211;SDS011;34000;48.772;9.162;2023-12-20T14:37:36;0.85;;;0.63;;
48211;SDS011;34000;48.772;9.162;2023-12-20T14:40:05;2.10;;;0.93;;
48211;SDS011;34000;48.772;9.162;2023-12-20T14:42:31;1.80;;;0.73;;
48211;SDS011;34000;48.772;9.162;2023-12-20T14:44:57;2.65;;;0.63;;
48211;SDS011;34000;48.772;9.162;2023-12-20T14:47:23;3.83;;;0.95;;
48211;SDS011;34000;48.772;9.162;2023-12-20T14:49:50;4.13;;;1.10;;
48211;SDS011;34000;48.772;9.162;2023-12-20T14:52:17;3.47;;;0.70;;
48211;SDS011;34000;48.772;9.162;2023-12-20T14:54:46;1.30;;;0.85;;